sensor_id;sensor_type;location;lat;lon;timestamp;P1;durP1;ratioP1;P2;durP2;ratioP2
7493;SDS011;3788;49.902;8.590;2023-06-14T00:01:36;5.07;;;4.27;;
7493;SDS011;3788;49.902;8.590;2023-06-14T00:04:03;6.03;;;4.07;;
7493;SDS011;3788;49.902;8.590;2023-06-14T00:06:30;4.17;;;3.83;;
7493;SDS011;3788;49.902;8.590;2023-06-14T00:08:58;6.77;;;4.23;;
7493;SDS011;3788;49.902;8.590;2023-06-14T00:11:25;3.80;;;3.50;;
7493;SDS011;3788;49.902;8.590;2023-06-14T00:13:53;4.37;;;3.97;;
7493;SDS011;3788;49.902;8.590;2023-06-14T00:16:20;4.27;;;3.87;;
7493;SDS011;3788;49.902;8.590;2023-06-14T00:18:47;4.70;;;4.30;;
7493;SDS011;3788;49.902;8.590;2023-06-14T00:21:16;4.80;;;4.30;;
7493;SDS011;3788;49.902;8.590;2023-06-14T00:23:44;4.77;;;4.27;;
7493;SDS011;3788;49.902;8.590;2023-06-14T00:26:10;4.67;;;4.27;;
7493;SDS011;3788;49.902;8.590;2023-06-14T00:28:37;4.90;;;4.40;;
7493;SDS011;3788;49.902;8.590;2023-06-14T00:31:05;5.53;;;4.80;;
7493;SDS011;3788;49.902;8.590;2023-06-14T00:33:32;5.87;;;4.10;;
7493;SDS011;3788;49.902;8.590;2023-06-14T00:35:58;4.33;;;3.97;;
7493;SDS011;3788;49.902;8.590;2023-06-14T00:38:25;4.80;;;4.07;;
7493;SDS011;3788;49.902;8.590;2023-06-14T00:40:52;4.77;;;4.37;;
7493;SDS011;3788;49.902;8.590;2023-06-14T00:43:18;4.17;;;3.77;;
7493;SDS011;3788;49.902;8.590;2023-06-14T00:45:45;5.37;;;4.63;;
7493;SDS011;3788;49.902;8.590;2023-06-14T00:48:16;5.13;;;4.47;;
7493;SDS011;3788;49.902;8.590;2023-06-14T00:50:43;4.50;;;4.10;;
7493;SDS011;3788;49.902;8.590;2023-06-14T00:53:10;4.60;;;4.20;;
7493;SDS011;3788;49.902;8.590;2023-06-14T00:55:37;5.23;;;4.83;;
7493;SDS011;3788;49.902;8.590;2023-06-14T00:58:04;4.70;;;4.30;;
7493;SDS011;3788;49.902;8.590;2023-06-14T01:00:31;5.53;;;4.80;;
7493;SDS011;3788;49.902;8.590;2023-06-14T01:02:57;5.03;;;4.60;;
7493;SDS011;3788;49.902;8.590;2023-06-14T01:05:25;4.53;;;4.13;;
7493;SDS011;3788;49.902;8.590;2023-06-14T01:08:00;5.03;;;4.63;;
7493;SDS011;3788;49.902;8.590;2023-06-14T01:10:35;5.10;;;4.30;;
7493;SDS011;3788;49.902;8.590;2023-06-14T01:13:10;5.10;;;4.60;;
7493;SDS011;3788;49.902;8.590;2023-06-14T01:15:40;5.00;;;4.50;;
7493;SDS011;3788;49.902;8.590;2023-06-14T01:18:08;4.87;;;4.47;;
7493;SDS011;3788;49.902;8.590;2023-06-14T01:20:44;5.00;;;4.60;;
7493;SDS011;3788;49.902;8.590;2023-06-14T01:23:15;4.60;;;4.20;;
7493;SDS011;3788;49.902;8.590;2023-06-14T01:25:42;4.70;;;4.30;;
7493;SDS011;3788;49.902;8.590;2023-06-14T01:28:09;5.00;;;4.57;;
7493;SDS011;3788;49.902;8.590;2023-06-14T01:30:38;4.50;;;4.10;;
7493;SDS011;3788;49.902;8.590;2023-06-14T01:33:07;4.10;;;3.80;;
7493;SDS011;3788;49.902;8.590;2023-06-14T01:35:34;4.90;;;4.30;;
7493;SDS011;3788;49.902;8.590;2023-06-14T01:38:03;5.17;;;4.77;;
7493;SDS011;3788;49.902;8.590;2023-06-14T01:40:32;5.10;;;3.90;;
7493;SDS011;3788;49.902;8.590;2023-06-14T01:43:01;4.83;;;4.40;;
7493;SDS011;3788;49.902;8.590;2023-06-14T01:45:29;7.67;;;4.80;;
7493;SDS011;3788;49.902;8.590;2023-06-14T01:47:56;4.53;;;4.13;;
7493;SDS011;3788;49.902;8.590;2023-06-14T01:50:24;7.47;;;4.93;;
7493;SDS011;3788;49.902;8.590;2023-06-14T01:52:54;5.53;;;4.60;;
7493;SDS011;3788;49.902;8.590;2023-06-14T01:55:21;5.70;;;4.60;;
7493;SDS011;3788;49.902;8.590;2023-06-14T01:57:51;4.97;;;4.57;;
7493;SDS011;3788;49.902;8.590;2023-06-14T02:00:18;4.60;;;4.20;;
7493;SDS011;3788;49.902;8.590;2023-06-14T02:02:45;4.37;;;3.93;;
7493;SDS011;3788;49.902;8.590;2023-06-14T02:05:11;4.70;;;4.30;;
7493;SDS011;3788;49.902;8.590;2023-06-14T02:07:38;4.90;;;4.40;;
7493;SDS011;3788;49.902;8.590;2023-06-14T02:10:05;5.33;;;4.17;;
7493;SDS011;3788;49.902;8.590;2023-06-14T02:12:32;4.30;;;3.90;;
7493;SDS011;3788;49.902;8.590;2023-06-14T02:15:00;4.70;;;4.30;;
7493;SDS011;3788;49.902;8.590;2023-06-14T02:17:28;4.80;;;4.37;;
7493;SDS011;3788;49.902;8.590;2023-06-14T02:19:55;4.67;;;4.27;;
7493;SDS011;3788;49.902;8.590;2023-06-14T02:22:23;4.60;;;4.20;;
7493;SDS011;3788;49.902;8.590;2023-06-14T02:24:49;4.57;;;4.17;;
7493;SDS011;3788;49.902;8.590;2023-06-14T02:27:16;4.53;;;4.13;;
7493;SDS011;3788;49.902;8.590;2023-06-14T02:29:44;4.80;;;4.40;;
7493;SDS011;3788;49.902;8.590;2023-06-14T02:32:12;4.20;;;3.90;;
7493;SDS011;3788;49.902;8.590;2023-06-14T02:34:38;4.23;;;3.83;;
7493;SDS011;3788;49.902;8.590;2023-06-14T02:37:06;4.70;;;4.30;;
7493;SDS011;3788;49.902;8.590;2023-06-14T02:39:33;5.10;;;4.23;;
7493;SDS011;3788;49.902;8.590;2023-06-14T02:42:00;4.43;;;4.03;;
7493;SDS011;3788;49.902;8.590;2023-06-14T02:44:26;4.60;;;4.10;;
7493;SDS011;3788;49.902;8.590;2023-06-14T02:46:53;5.27;;;3.93;;
7493;SDS011;3788;49.902;8.590;2023-06-14T02:49:22;4.60;;;4.20;;
7493;SDS011;3788;49.902;8.590;2023-06-14T02:51:48;3.87;;;3.57;;
7493;SDS011;3788;49.902;8.590;2023-06-14T02:54:15;4.70;;;4.30;;
7493;SDS011;3788;49.902;8.590;2023-06-14T02:56:42;4.73;;;4.30;;
7493;SDS011;3788;49.902;8.590;2023-06-14T02:59:09;3.90;;;3.60;;
7493;SDS011;3788;49.902;8.590;2023-06-14T03:01:36;4.20;;;3.80;;
7493;SDS011;3788;49.902;8.590;2023-06-14T03:04:05;4.67;;;4.27;;
7493;SDS011;3788;49.902;8.590;2023-06-14T03:06:34;4.33;;;3.90;;
7493;SDS011;3788;49.902;8.590;2023-06-14T03:09:01;4.40;;;3.80;;
7493;SDS011;3788;49.902;8.590;2023-06-14T03:11:29;4.13;;;3.83;;
7493;SDS011;3788;49.902;8.590;2023-06-14T03:13:56;4.07;;;3.77;;
7493;SDS011;3788;49.902;8.590;2023-06-14T03:16:23;3.93;;;3.63;;
7493;SDS011;3788;49.902;8.590;2023-06-14T03:18:51;3.97;;;3.67;;
7493;SDS011;3788;49.902;8.590;2023-06-14T03:21:18;3.77;;;3.47;;
7493;SDS011;3788;49.902;8.590;2023-06-14T03:23:47;4.07;;;3.77;;
7493;SDS011;3788;49.902;8.590;2023-06-14T03:26:14;4.20;;;3.80;;
7493;SDS011;3788;49.902;8.590;2023-06-14T03:28:42;4.03;;;3.73;;
7493;SDS011;3788;49.902;8.590;2023-06-14T03:31:09;4.93;;;4.03;;
7493;SDS011;3788;49.902;8.590;2023-06-14T03:33:36;4.17;;;3.77;;
7493;SDS011;3788;49.902;8.590;2023-06-14T03:36:03;4.63;;;3.77;;
7493;SDS011;3788;49.902;8.590;2023-06-14T03:38:30;3.70;;;3.40;;
7493;SDS011;3788;49.902;8.590;2023-06-14T03:40:58;4.37;;;3.97;;
7493;SDS011;3788;49.902;8.590;2023-06-14T03:43:25;4.53;;;3.67;;
7493;SDS011;3788;49.902;8.590;2023-06-14T03:45:52;3.70;;;3.40;;
7493;SDS011;3788;49.902;8.590;2023-06-14T03:48:18;5.13;;;3.30;;
7493;SDS011;3788;49.902;8.590;2023-06-14T03:50:45;4.27;;;3.87;;
7493;SDS011;3788;49.902;8.590;2023-06-14T03:53:12;4.93;;;3.87;;
7493;SDS011;3788;49.902;8.590;2023-06-14T03:55:39;3.87;;;3.53;;
7493;SDS011;3788;49.902;8.590;2023-06-14T03:58:07;4.27;;;3.87;;
7493;SDS011;3788;49.902;8.590;2023-06-14T04:00:34;4.13;;;3.83;;
7493;SDS011;3788;49.902;8.590;2023-06-14T04:03:01;5.53;;;3.80;;
7493;SDS011;3788;49.902;8.590;2023-06-14T04:05:30;4.17;;;3.77;;
7493;SDS011;3788;49.902;8.590;2023-06-14T04:07:57;6.00;;;4.23;;
7493;SDS011;3788;49.902;8.590;2023-06-14T04:10:25;5.20;;;4.00;;
7493;SDS011;3788;49.902;8.590;2023-06-14T04:12:52;3.87;;;3.57;;
7493;SDS011;3788;49.902;8.590;2023-06-14T04:15:20;5.00;;;4.23;;
7493;SDS011;3788;49.902;8.590;2023-06-14T04:17:47;4.40;;;3.50;;
7493;SDS011;3788;49.902;8.590;2023-06-14T04:20:13;4.40;;;4.00;;
7493;SDS011;3788;49.902;8.590;2023-06-14T04:22:40;4.33;;;3.93;;
7493;SDS011;3788;49.902;8.590;2023-06-14T04:25:08;4.87;;;3.43;;
7493;SDS011;3788;49.902;8.590;2023-06-14T04:27:34;3.80;;;3.50;;
7493;SDS011;3788;49.902;8.590;2023-06-14T04:30:01;5.93;;;4.27;;
7493;SDS011;3788;49.902;8.590;2023-06-14T04:32:30;6.30;;;4.67;;
7493;SDS011;3788;49.902;8.590;2023-06-14T04:34:58;5.73;;;3.67;;
7493;SDS011;3788;49.902;8.590;2023-06-14T04:37:27;5.43;;;3.63;;
7493;SDS011;3788;49.902;8.590;2023-06-14T04:39:54;3.93;;;3.63;;
7493;SDS011;3788;49.902;8.590;2023-06-14T04:42:21;7.27;;;3.70;;
7493;SDS011;3788;49.902;8.590;2023-06-14T04:44:50;4.37;;;3.93;;
7493;SDS011;3788;49.902;8.590;2023-06-14T04:47:19;5.13;;;3.70;;
7493;SDS011;3788;49.902;8.590;2023-06-14T04:49:48;4.00;;;3.60;;
7493;SDS011;3788;49.902;8.590;2023-06-14T04:52:15;4.03;;;3.27;;
7493;SDS011;3788;49.902;8.590;2023-06-14T04:54:42;3.37;;;3.13;;
7493;SDS011;3788;49.902;8.590;2023-06-14T04:57:09;5.03;;;3.57;;
7493;SDS011;3788;49.902;8.590;2023-06-14T04:59:38;3.57;;;3.10;;
7493;SDS011;3788;49.902;8.590;2023-06-14T05:02:05;4.40;;;3.40;;
7493;SDS011;3788;49.902;8.590;2023-06-14T05:04:33;3.67;;;3.37;;
7493;SDS011;3788;49.902;8.590;2023-06-14T05:07:05;6.50;;;3.70;;
7493;SDS011;3788;49.902;8.590;2023-06-14T05:09:33;4.20;;;3.70;;
7493;SDS011;3788;49.902;8.590;2023-06-14T05:11:59;4.27;;;3.57;;
7493;SDS011;3788;49.902;8.590;2023-06-14T05:14:26;4.30;;;3.70;;
7493;SDS011;3788;49.902;8.590;2023-06-14T05:16:53;5.33;;;3.57;;
7493;SDS011;3788;49.902;8.590;2023-06-14T05:19:20;4.20;;;3.70;;
7493;SDS011;3788;49.902;8.590;2023-06-14T05:21:47;3.70;;;3.30;;
7493;SDS011;3788;49.902;8.590;2023-06-14T05:24:15;7.63;;;3.90;;
7493;SDS011;3788;49.902;8.590;2023-06-14T05:26:43;5.17;;;4.10;;
7493;SDS011;3788;49.902;8.590;2023-06-14T05:29:10;3.40;;;3.13;;
7493;SDS011;3788;49.902;8.590;2023-06-14T05:31:36;4.93;;;3.77;;
7493;SDS011;3788;49.902;8.590;2023-06-14T05:34:03;5.17;;;3.63;;
7493;SDS011;3788;49.902;8.590;2023-06-14T05:36:30;6.23;;;4.23;;
7493;SDS011;3788;49.902;8.590;2023-06-14T05:38:57;4.00;;;3.50;;
7493;SDS011;3788;49.902;8.590;2023-06-14T05:41:26;4.63;;;3.47;;
7493;SDS011;3788;49.902;8.590;2023-06-14T05:43:53;3.53;;;3.23;;
7493;SDS011;3788;49.902;8.590;2023-06-14T05:46:22;4.20;;;3.60;;
7493;SDS011;3788;49.902;8.590;2023-06-14T05:48:50;6.37;;;3.53;;
7493;SDS011;3788;49.902;8.590;2023-06-14T05:51:17;5.47;;;3.87;;
7493;SDS011;3788;49.902;8.590;2023-06-14T05:53:46;3.63;;;3.33;;
7493;SDS011;3788;49.902;8.590;2023-06-14T05:56:14;3.80;;;3.50;;
7493;SDS011;3788;49.902;8.590;2023-06-14T05:58:44;4.27;;;3.60;;
7493;SDS011;3788;49.902;8.590;2023-06-14T06:01:11;3.63;;;3.33;;
7493;SDS011;3788;49.902;8.590;2023-06-14T06:03:38;4.50;;;3.50;;
7493;SDS011;3788;49.902;8.590;2023-06-14T06:06:04;5.50;;;4.10;;
7493;SDS011;3788;49.902;8.590;2023-06-14T06:08:32;5.83;;;3.40;;
7493;SDS011;3788;49.902;8.590;2023-06-14T06:11:00;5.47;;;3.63;;
7493;SDS011;3788;49.902;8.590;2023-06-14T06:13:26;5.43;;;3.57;;
7493;SDS011;3788;49.902;8.590;2023-06-14T06:15:54;3.43;;;3.13;;
7493;SDS011;3788;49.902;8.590;2023-06-14T06:18:21;4.33;;;3.57;;
7493;SDS011;3788;49.902;8.590;2023-06-14T06:20:48;5.83;;;3.93;;
7493;SDS011;3788;49.902;8.590;2023-06-14T06:23:15;4.00;;;3.63;;
7493;SDS011;3788;49.902;8.590;2023-06-14T06:25:42;4.97;;;3.80;;
7493;SDS011;3788;49.902;8.590;2023-06-14T06:28:09;4.50;;;3.67;;
7493;SDS011;3788;49.902;8.590;2023-06-14T06:30:36;3.70;;;3.40;;
7493;SDS011;3788;49.902;8.590;2023-06-14T06:33:04;4.23;;;3.80;;
7493;SDS011;3788;49.902;8.590;2023-06-14T06:35:31;4.00;;;3.60;;
7493;SDS011;3788;49.902;8.590;2023-06-14T06:37:58;4.93;;;3.70;;
7493;SDS011;3788;49.902;8.590;2023-06-14T06:40:25;3.93;;;3.50;;
7493;SDS011;3788;49.902;8.590;2023-06-14T06:42:52;4.97;;;3.37;;
7493;SDS011;3788;49.902;8.590;2023-06-14T06:45:19;4.10;;;3.30;;
7493;SDS011;3788;49.902;8.590;2023-06-14T06:47:46;4.13;;;3.03;;
7493;SDS011;3788;49.902;8.590;2023-06-14T06:50:14;3.67;;;3.37;;
7493;SDS011;3788;49.902;8.590;2023-06-14T06:52:41;5.67;;;3.37;;
7493;SDS011;3788;49.902;8.590;2023-06-14T06:55:08;5.80;;;3.87;;
7493;SDS011;3788;49.902;8.590;2023-06-14T06:57:36;3.93;;;3.53;;
7493;SDS011;3788;49.902;8.590;2023-06-14T07:00:03;5.93;;;4.27;;
7493;SDS011;3788;49.902;8.590;2023-06-14T07:02:33;4.77;;;3.60;;
7493;SDS011;3788;49.902;8.590;2023-06-14T07:04:59;3.93;;;3.60;;
7493;SDS011;3788;49.902;8.590;2023-06-14T07:07:27;3.60;;;3.30;;
7493;SDS011;3788;49.902;8.590;2023-06-14T07:09:54;4.93;;;3.50;;
7493;SDS011;3788;49.902;8.590;2023-06-14T07:12:22;3.60;;;3.30;;
7493;SDS011;3788;49.902;8.590;2023-06-14T07:14:49;3.80;;;3.40;;
7493;SDS011;3788;49.902;8.590;2023-06-14T07:17:15;4.07;;;3.67;;
7493;SDS011;3788;49.902;8.590;2023-06-14T07:19:42;3.60;;;3.27;;
7493;SDS011;3788;49.902;8.590;2023-06-14T07:22:08;5.13;;;3.70;;
7493;SDS011;3788;49.902;8.590;2023-06-14T07:24:36;3.70;;;3.33;;
7493;SDS011;3788;49.902;8.590;2023-06-14T07:27:05;4.00;;;3.60;;
7493;SDS011;3788;49.902;8.590;2023-06-14T07:29:32;3.80;;;3.03;;
7493;SDS011;3788;49.902;8.590;2023-06-14T07:31:59;3.87;;;3.50;;
7493;SDS011;3788;49.902;8.590;2023-06-14T07:34:26;3.57;;;3.23;;
7493;SDS011;3788;49.902;8.590;2023-06-14T07:36:53;4.43;;;3.37;;
7493;SDS011;3788;49.902;8.590;2023-06-14T07:39:20;3.50;;;3.20;;
7493;SDS011;3788;49.902;8.590;2023-06-14T07:41:48;3.17;;;2.87;;
7493;SDS011;3788;49.902;8.590;2023-06-14T07:44:15;3.20;;;2.90;;
7493;SDS011;3788;49.902;8.590;2023-06-14T07:46:42;3.47;;;2.73;;
7493;SDS011;3788;49.902;8.590;2023-06-14T07:49:09;3.90;;;3.50;;
7493;SDS011;3788;49.902;8.590;2023-06-14T07:51:35;4.13;;;2.90;;
7493;SDS011;3788;49.902;8.590;2023-06-14T07:54:03;5.87;;;3.10;;
7493;SDS011;3788;49.902;8.590;2023-06-14T07:56:32;4.97;;;3.40;;
7493;SDS011;3788;49.902;8.590;2023-06-14T07:59:00;3.10;;;2.90;;
7493;SDS011;3788;49.902;8.590;2023-06-14T08:01:26;2.87;;;2.67;;
7493;SDS011;3788;49.902;8.590;2023-06-14T08:03:53;3.27;;;2.97;;
7493;SDS011;3788;49.902;8.590;2023-06-14T08:06:20;3.27;;;3.07;;
7493;SDS011;3788;49.902;8.590;2023-06-14T08:08:47;4.03;;;3.00;;
7493;SDS011;3788;49.902;8.590;2023-06-14T08:11:13;4.07;;;3.17;;
7493;SDS011;3788;49.902;8.590;2023-06-14T08:13:40;3.03;;;2.83;;
7493;SDS011;3788;49.902;8.590;2023-06-14T08:16:08;3.00;;;2.80;;
7493;SDS011;3788;49.902;8.590;2023-06-14T08:18:35;2.90;;;2.70;;
7493;SDS011;3788;49.902;8.590;2023-06-14T08:21:02;2.70;;;2.50;;
7493;SDS011;3788;49.902;8.590;2023-06-14T08:23:29;2.93;;;2.57;;
7493;SDS011;3788;49.902;8.590;2023-06-14T08:25:55;2.77;;;2.57;;
7493;SDS011;3788;49.902;8.590;2023-06-14T08:28:23;3.03;;;2.83;;
7493;SDS011;3788;49.902;8.590;2023-06-14T08:30:50;2.87;;;2.57;;
7493;SDS011;3788;49.902;8.590;2023-06-14T08:33:18;3.00;;;2.80;;
7493;SDS011;3788;49.902;8.590;2023-06-14T08:35:45;2.37;;;2.03;;
7493;SDS011;3788;49.902;8.590;2023-06-14T08:38:11;3.23;;;2.13;;
7493;SDS011;3788;49.902;8.590;2023-06-14T08:40:38;2.80;;;2.37;;
7493;SDS011;3788;49.902;8.590;2023-06-14T08:43:07;2.50;;;2.30;;
7493;SDS011;3788;49.902;8.590;2023-06-14T08:45:33;2.70;;;2.50;;
7493;SDS011;3788;49.902;8.590;2023-06-14T08:48:00;2.40;;;1.97;;
7493;SDS011;3788;49.902;8.590;2023-06-14T08:50:29;2.10;;;2.00;;
7493;SDS011;3788;49.902;8.590;2023-06-14T08:52:59;1.87;;;1.77;;
7493;SDS011;3788;49.902;8.590;2023-06-14T08:55:28;2.30;;;2.03;;
7493;SDS011;3788;49.902;8.590;2023-06-14T08:57:56;2.27;;;2.17;;
7493;SDS011;3788;49.902;8.590;2023-06-14T09:00:24;2.67;;;1.70;;
7493;SDS011;3788;49.902;8.590;2023-06-14T09:02:52;2.13;;;1.83;;
7493;SDS011;3788;49.902;8.590;2023-06-14T09:05:23;3.40;;;2.30;;
7493;SDS011;3788;49.902;8.590;2023-06-14T09:07:52;2.00;;;1.83;;
7493;SDS011;3788;49.902;8.590;2023-06-14T09:10:21;1.80;;;1.70;;
7493;SDS011;3788;49.902;8.590;2023-06-14T09:12:50;2.90;;;1.90;;
7493;SDS011;3788;49.902;8.590;2023-06-14T09:15:17;1.87;;;1.77;;
7493;SDS011;3788;49.902;8.590;2023-06-14T09:17:45;2.40;;;1.80;;
7493;SDS011;3788;49.902;8.590;2023-06-14T09:20:12;1.70;;;1.60;;
7493;SDS011;3788;49.902;8.590;2023-06-14T09:22:43;1.77;;;1.67;;
7493;SDS011;3788;49.902;8.590;2023-06-14T09:25:11;1.43;;;1.33;;
7493;SDS011;3788;49.902;8.590;2023-06-14T09:27:40;1.40;;;1.30;;
7493;SDS011;3788;49.902;8.590;2023-06-14T09:30:08;3.70;;;1.80;;
7493;SDS011;3788;49.902;8.590;2023-06-14T09:32:36;1.77;;;1.67;;
7493;SDS011;3788;49.902;8.590;2023-06-14T09:35:04;1.80;;;1.70;;
7493;SDS011;3788;49.902;8.590;2023-06-14T09:37:32;1.50;;;1.40;;
7493;SDS011;3788;49.902;8.590;2023-06-14T09:39:59;2.20;;;1.50;;
7493;SDS011;3788;49.902;8.590;2023-06-14T09:42:27;1.93;;;1.60;;
7493;SDS011;3788;49.902;8.590;2023-06-14T09:44:55;1.80;;;1.60;;
7493;SDS011;3788;49.902;8.590;2023-06-14T09:47:22;3.17;;;2.10;;
7493;SDS011;3788;49.902;8.590;2023-06-14T09:49:50;1.70;;;1.60;;
7493;SDS011;3788;49.902;8.590;2023-06-14T09:52:17;2.20;;;1.83;;
7493;SDS011;3788;49.902;8.590;2023-06-14T09:54:45;1.90;;;1.80;;
7493;SDS011;3788;49.902;8.590;2023-06-14T09:57:13;1.80;;;1.70;;
7493;SDS011;3788;49.902;8.590;2023-06-14T09:59:43;2.20;;;1.53;;
7493;SDS011;3788;49.902;8.590;2023-06-14T10:02:12;1.90;;;1.80;;
7493;SDS011;3788;49.902;8.590;2023-06-14T10:04:50;1.77;;;1.67;;
7493;SDS011;3788;49.902;8.590;2023-06-14T10:07:25;1.30;;;1.30;;
7493;SDS011;3788;49.902;8.590;2023-06-14T10:09:56;1.90;;;1.80;;
7493;SDS011;3788;49.902;8.590;2023-06-14T10:12:23;1.80;;;1.70;;
7493;SDS011;3788;49.902;8.590;2023-06-14T10:14:51;2.20;;;2.00;;
7493;SDS011;3788;49.902;8.590;2023-06-14T10:17:21;1.80;;;1.70;;
7493;SDS011;3788;49.902;8.590;2023-06-14T10:19:54;3.10;;;1.83;;
7493;SDS011;3788;49.902;8.590;2023-06-14T10:22:26;1.83;;;1.73;;
7493;SDS011;3788;49.902;8.590;2023-06-14T10:24:59;1.90;;;1.80;;
7493;SDS011;3788;49.902;8.590;2023-06-14T10:27:26;1.90;;;1.80;;
7493;SDS011;3788;49.902;8.590;2023-06-14T10:30:04;2.50;;;2.30;;
7493;SDS011;3788;49.902;8.590;2023-06-14T10:33:04;2.37;;;2.17;;
7493;SDS011;3788;49.902;8.590;2023-06-14T10:35:32;1.73;;;1.63;;
7493;SDS011;3788;49.902;8.590;2023-06-14T10:38:06;4.20;;;2.30;;
7493;SDS011;3788;49.902;8.590;2023-06-14T10:40:34;3.00;;;1.90;;
7493;SDS011;3788;49.902;8.590;2023-06-14T10:48:46;2.47;;;1.73;;
7493;SDS011;3788;49.902;8.590;2023-06-14T10:51:16;2.00;;;1.90;;
7493;SDS011;3788;49.902;8.590;2023-06-14T10:53:47;2.27;;;2.07;;
7493;SDS011;3788;49.902;8.590;2023-06-14T10:56:27;2.23;;;2.00;;
7493;SDS011;3788;49.902;8.590;2023-06-14T10:58:55;2.07;;;1.97;;
7493;SDS011;3788;49.902;8.590;2023-06-14T11:01:32;1.97;;;1.87;;
7493;SDS011;3788;49.902;8.590;2023-06-14T11:04:06;2.20;;;2.00;;
7493;SDS011;3788;49.902;8.590;2023-06-14T11:06:44;1.70;;;1.60;;
7493;SDS011;3788;49.902;8.590;2023-06-14T11:09:21;2.20;;;2.00;;
7493;SDS011;3788;49.902;8.590;2023-06-14T11:12:12;2.00;;;1.90;;
7493;SDS011;3788;49.902;8.590;2023-06-14T11:14:39;2.70;;;1.90;;
7493;SDS011;3788;49.902;8.590;2023-06-14T11:17:07;2.37;;;2.00;;
7493;SDS011;3788;49.902;8.590;2023-06-14T11:19:34;1.80;;;1.70;;
7493;SDS011;3788;49.902;8.590;2023-06-14T11:22:01;1.83;;;1.73;;
7493;SDS011;3788;49.902;8.590;2023-06-14T11:24:27;1.83;;;1.63;;
7493;SDS011;3788;49.902;8.590;2023-06-14T11:26:55;2.10;;;1.90;;
7493;SDS011;3788;49.902;8.590;2023-06-14T11:29:22;1.93;;;1.83;;
7493;SDS011;3788;49.902;8.590;2023-06-14T11:31:50;1.80;;;1.70;;
7493;SDS011;3788;49.902;8.590;2023-06-14T11:34:18;1.83;;;1.73;;
7493;SDS011;3788;49.902;8.590;2023-06-14T11:36:45;1.70;;;1.60;;
7493;SDS011;3788;49.902;8.590;2023-06-14T11:39:12;2.23;;;2.00;;
7493;SDS011;3788;49.902;8.590;2023-06-14T11:41:40;1.70;;;1.60;;
7493;SDS011;3788;49.902;8.590;2023-06-14T11:44:08;1.80;;;1.70;;
7493;SDS011;3788;49.902;8.590;2023-06-14T11:46:36;1.80;;;1.70;;
7493;SDS011;3788;49.902;8.590;2023-06-14T11:49:03;1.90;;;1.73;;
7493;SDS011;3788;49.902;8.590;2023-06-14T11:51:33;1.63;;;1.53;;
7493;SDS011;3788;49.902;8.590;2023-06-14T11:54:01;2.93;;;1.90;;
7493;SDS011;3788;49.902;8.590;2023-06-14T11:56:28;1.83;;;1.73;;
7493;SDS011;3788;49.902;8.590;2023-06-14T11:58:56;3.17;;;1.97;;
7493;SDS011;3788;49.902;8.590;2023-06-14T12:01:23;2.23;;;2.03;;
7493;SDS011;3788;49.902;8.590;2023-06-14T12:03:50;2.10;;;1.87;;
7493;SDS011;3788;49.902;8.590;2023-06-14T12:06:25;2.13;;;2.00;;
7493;SDS011;3788;49.902;8.590;2023-06-14T12:08:56;2.20;;;2.03;;
7493;SDS011;3788;49.902;8.590;2023-06-14T12:11:23;2.47;;;2.27;;
7493;SDS011;3788;49.902;8.590;2023-06-14T12:13:50;4.03;;;1.90;;
7493;SDS011;3788;49.902;8.590;2023-06-14T12:16:17;2.83;;;1.90;;
7493;SDS011;3788;49.902;8.590;2023-06-14T12:18:43;2.27;;;2.07;;
7493;SDS011;3788;49.902;8.590;2023-06-14T12:21:10;2.30;;;2.10;;
7493;SDS011;3788;49.902;8.590;2023-06-14T12:23:43;2.23;;;1.97;;
7493;SDS011;3788;49.902;8.590;2023-06-14T12:26:15;2.20;;;2.00;;
7493;SDS011;3788;49.902;8.590;2023-06-14T12:28:44;1.87;;;1.77;;
7493;SDS011;3788;49.902;8.590;2023-06-14T12:31:11;2.73;;;2.33;;
7493;SDS011;3788;49.902;8.590;2023-06-14T12:33:39;2.80;;;2.60;;
7493;SDS011;3788;49.902;8.590;2023-06-14T12:36:07;2.40;;;2.20;;
7493;SDS011;3788;49.902;8.590;2023-06-14T12:38:35;2.77;;;2.20;;
7493;SDS011;3788;49.902;8.590;2023-06-14T12:41:02;2.40;;;2.30;;
7493;SDS011;3788;49.902;8.590;2023-06-14T12:43:30;2.50;;;2.13;;
7493;SDS011;3788;49.902;8.590;2023-06-14T12:45:57;2.57;;;2.37;;
7493;SDS011;3788;49.902;8.590;2023-06-14T12:48:23;3.23;;;2.93;;
7493;SDS011;3788;49.902;8.590;2023-06-14T12:50:52;2.87;;;2.30;;
7493;SDS011;3788;49.902;8.590;2023-06-14T12:53:18;4.10;;;2.73;;
7493;SDS011;3788;49.902;8.590;2023-06-14T12:55:46;2.57;;;2.37;;
7493;SDS011;3788;49.902;8.590;2023-06-14T12:58:12;3.83;;;2.90;;
7493;SDS011;3788;49.902;8.590;2023-06-14T13:00:41;3.23;;;3.03;;
7493;SDS011;3788;49.902;8.590;2023-06-14T13:03:07;2.90;;;2.43;;
7493;SDS011;3788;49.902;8.590;2023-06-14T13:05:35;2.43;;;2.13;;
7493;SDS011;3788;49.902;8.590;2023-06-14T13:08:05;3.27;;;2.27;;
7493;SDS011;3788;49.902;8.590;2023-06-14T13:10:33;2.40;;;2.20;;
7493;SDS011;3788;49.902;8.590;2023-06-14T13:13:00;2.70;;;2.50;;
7493;SDS011;3788;49.902;8.590;2023-06-14T13:15:27;2.70;;;2.50;;
7493;SDS011;3788;49.902;8.590;2023-06-14T13:17:55;2.40;;;2.20;;
7493;SDS011;3788;49.902;8.590;2023-06-14T13:20:22;2.40;;;2.10;;
7493;SDS011;3788;49.902;8.590;2023-06-14T13:22:49;3.90;;;2.63;;
7493;SDS011;3788;49.902;8.590;2023-06-14T13:25:15;2.60;;;2.40;;
7493;SDS011;3788;49.902;8.590;2023-06-14T13:27:42;2.70;;;2.50;;
7493;SDS011;3788;49.902;8.590;2023-06-14T13:30:09;2.80;;;2.60;;
7493;SDS011;3788;49.902;8.590;2023-06-14T13:32:37;3.47;;;2.43;;
7493;SDS011;3788;49.902;8.590;2023-06-14T13:35:05;2.30;;;2.10;;
7493;SDS011;3788;49.902;8.590;2023-06-14T13:37:32;2.50;;;2.30;;
7493;SDS011;3788;49.902;8.590;2023-06-14T13:39:59;2.40;;;2.20;;
7493;SDS011;3788;49.902;8.590;2023-06-14T13:42:26;2.60;;;2.20;;
7493;SDS011;3788;49.902;8.590;2023-06-14T13:44:56;2.40;;;2.20;;
7493;SDS011;3788;49.902;8.590;2023-06-14T13:47:23;2.20;;;2.00;;
7493;SDS011;3788;49.902;8.590;2023-06-14T13:49:49;1.97;;;1.87;;
7493;SDS011;3788;49.902;8.590;2023-06-14T13:52:18;2.30;;;2.10;;
7493;SDS011;3788;49.902;8.590;2023-06-14T13:54:44;3.37;;;2.37;;
7493;SDS011;3788;49.902;8.590;2023-06-14T13:57:11;2.77;;;2.40;;
7493;SDS011;3788;49.902;8.590;2023-06-14T13:59:38;2.90;;;2.40;;
7493;SDS011;3788;49.902;8.590;2023-06-14T14:02:05;2.70;;;2.50;;
7493;SDS011;3788;49.902;8.590;2023-06-14T14:04:32;2.53;;;2.33;;
7493;SDS011;3788;49.902;8.590;2023-06-14T14:07:00;3.07;;;2.07;;
7493;SDS011;3788;49.902;8.590;2023-06-14T14:09:28;3.10;;;2.00;;
7493;SDS011;3788;49.902;8.590;2023-06-14T14:11:55;2.53;;;2.20;;
7493;SDS011;3788;49.902;8.590;2023-06-14T14:14:22;2.77;;;2.57;;
7493;SDS011;3788;49.902;8.590;2023-06-14T14:16:49;2.50;;;2.30;;
7493;SDS011;3788;49.902;8.590;2023-06-14T14:19:16;3.30;;;2.50;;
7493;SDS011;3788;49.902;8.590;2023-06-14T14:21:43;3.03;;;2.37;;
7493;SDS011;3788;49.902;8.590;2023-06-14T14:24:10;2.83;;;2.43;;
7493;SDS011;3788;49.902;8.590;2023-06-14T14:26:38;2.30;;;2.10;;
7493;SDS011;3788;49.902;8.590;2023-06-14T14:29:05;2.83;;;2.17;;
7493;SDS011;3788;49.902;8.590;2023-06-14T14:31:32;2.90;;;2.07;;
7493;SDS011;3788;49.902;8.590;2023-06-14T14:33:59;1.90;;;1.80;;
7493;SDS011;3788;49.902;8.590;2023-06-14T14:36:26;3.93;;;2.50;;
7493;SDS011;3788;49.902;8.590;2023-06-14T14:38:52;2.30;;;2.10;;
7493;SDS011;3788;49.902;8.590;2023-06-14T14:41:19;2.50;;;2.30;;
7493;SDS011;3788;49.902;8.590;2023-06-14T14:43:47;2.67;;;2.17;;
7493;SDS011;3788;49.902;8.590;2023-06-14T14:46:14;2.77;;;2.57;;
7493;SDS011;3788;49.902;8.590;2023-06-14T14:48:41;2.33;;;2.23;;
7493;SDS011;3788;49.902;8.590;2023-06-14T14:51:08;2.73;;;2.10;;
7493;SDS011;3788;49.902;8.590;2023-06-14T14:53:35;4.20;;;2.40;;
7493;SDS011;3788;49.902;8.590;2023-06-14T14:56:02;2.20;;;2.00;;
7493;SDS011;3788;49.902;8.590;2023-06-14T14:58:29;3.80;;;2.10;;
7493;SDS011;3788;49.902;8.590;2023-06-14T15:01:06;2.43;;;2.23;;
7493;SDS011;3788;49.902;8.590;2023-06-14T15:03:35;2.40;;;2.20;;
7493;SDS011;3788;49.902;8.590;2023-06-14T15:06:02;2.10;;;2.00;;
7493;SDS011;3788;49.902;8.590;2023-06-14T15:08:30;2.37;;;2.17;;
7493;SDS011;3788;49.902;8.590;2023-06-14T15:10:56;2.20;;;2.00;;
7493;SDS011;3788;49.902;8.590;2023-06-14T15:13:23;3.10;;;2.30;;
7493;SDS011;3788;49.902;8.590;2023-06-14T15:15:50;2.23;;;2.03;;
7493;SDS011;3788;49.902;8.590;2023-06-14T15:18:18;2.50;;;2.30;;
7493;SDS011;3788;49.902;8.590;2023-06-14T15:20:45;1.87;;;1.77;;
7493;SDS011;3788;49.902;8.590;2023-06-14T15:23:12;1.87;;;1.77;;
7493;SDS011;3788;49.902;8.590;2023-06-14T15:25:44;2.33;;;2.00;;